Date StartTime U_cm/s V_cm/s W_cm/s Ustd_cm/s Vstd_cm/s Wstd_cm/s Uvar_(cm/s)^2 Vvar_(cm/s)^2 Wvar_(cm/s)^2 KE_(m/s)^2 TurbulentKE_(m/s)^2 HorizWindSpeed_cm/s FrictionSpeec_cm/s DragCoef SpeedOfSound_m/s SonicTemperature_C Pressure_mb 
04/09/2015  13:38:00       64.395       98.353        7.741       42.642       87.332       28.405     1818.307     7626.878      806.820        1.206        0.513      117.558       17.117        0.021      340.107       13.902      862.515
04/09/2015  13:39:00       14.858       -0.717       10.424       25.160       80.843       22.158      633.009     6535.519      490.970        0.399        0.383       14.875       31.020        4.349      340.413       14.417      862.483
04/09/2015  13:40:00      -18.514       91.863        4.649       48.435       47.555       34.338     2345.987     2261.505     1179.085        0.729        0.289       93.710       29.456        0.099      340.537       14.626      862.465
04/09/2015  13:41:00       44.657      100.883       -2.587       19.630       52.798       25.876      385.353     2787.651      669.585        0.801        0.192      110.325       11.794        0.011      340.106       13.899      862.458
04/09/2015  13:42:00      -46.040      208.758        2.130       36.241       58.763       35.574     1313.404     3453.043     1265.510        2.587        0.302      213.775       24.042        0.013      340.547       14.641      862.457
04/09/2015  13:43:00        3.695      224.896        6.325       37.168       59.475       26.374     1381.426     3537.297      695.600        2.812        0.281      224.926       13.692        0.004      340.063       13.823      862.443
04/09/2015  13:44:00       59.747      119.148       18.859       31.344       54.776       29.575      982.451     3000.440      874.702        1.149        0.243      133.289       25.608        0.037      340.693       14.891      862.433
04/09/2015  13:45:00       28.181       44.337        5.703       37.930       27.324       19.493     1438.662      746.601      379.980        0.268        0.128       52.535       17.044        0.105      340.335       14.287      862.399
04/09/2015  13:46:00      -24.110      -76.719       31.512       42.471       43.055       30.717     1803.803     1853.776      943.550        0.603        0.230       80.418       19.427        0.058      340.807       15.083      862.370
04/09/2015  13:47:00      -60.271       -6.549       -5.470       40.651      136.180       28.781     1652.509    18545.121      828.337        1.236        1.051       60.625       28.782        0.225      340.345       14.300      862.347
04/09/2015  13:48:00      -48.359      333.193       -4.214       71.335       70.486       35.323     5088.723     4968.288     1247.722        6.234        0.565      336.684       41.612        0.015      340.168       14.000      862.362
04/09/2015  13:49:00       -9.182      111.654        1.420       31.853       49.717       27.578     1014.625     2471.763      760.529        0.840        0.212      112.031       22.279        0.040      340.297       14.220      862.357
04/09/2015  13:50:00      103.784       41.436       -8.637       42.777       49.443       29.811     1829.895     2444.642      888.723        0.886        0.258      111.750       30.865        0.076      340.049       13.802      862.329
04/09/2015  13:51:00      104.765        4.497        4.442       31.740       41.127       31.180     1007.405     1691.427      972.197        0.734        0.184      104.862       17.366        0.027      340.167       14.000      862.310
04/09/2015  13:52:00       53.223      -34.328        4.459       25.998       28.547       17.805      675.893      814.918      317.036        0.292        0.090       63.333        6.502        0.011      340.528       14.611      862.278
04/09/2015  13:53:00       84.725       56.181       -6.308       25.977       22.950       26.327      674.788      526.690      693.130        0.613        0.095      101.659       14.294        0.020      340.197       14.053      862.262
04/09/2015  13:54:00       86.220      116.916        8.804       76.976       89.606       31.373     5925.241     8029.203      984.246        1.806        0.747      145.270       24.466        0.028      340.685       14.877      862.257
04/09/2015  13:55:00       99.327      142.807       26.475       44.790       49.292       29.039     2006.141     2429.703      843.286        1.812        0.264      173.953       24.097        0.019      340.712       14.923      862.252
04/09/2015  13:56:00        9.418      118.269        3.596       36.718       42.498       30.580     1348.220     1806.063      935.147        0.909        0.204      118.644       15.673        0.017      340.370       14.343      862.233
04/09/2015  13:57:00       98.454      -12.232       18.114       51.444       78.687       28.186     2646.458     6191.573      794.455        0.990        0.482       99.211       24.225        0.060      340.691       14.888      862.216
04/09/2015  13:58:00      121.151      -86.144       12.794       33.366       24.036       18.163     1113.302      577.706      329.879        1.214        0.101      148.655       11.480        0.006      340.182       14.026      862.199
04/09/2015  13:59:00       46.473       -6.276       -4.051       31.988       39.354       26.768     1023.227     1548.707      716.511        0.275        0.164       46.895        7.754        0.027      340.560       14.666      862.197
04/09/2015  14:00:00      -77.255      -44.404       -5.100       56.689       61.896       21.544     3213.664     3831.155      464.158        0.774        0.375       89.107       22.403        0.063      340.702       14.905      862.174
04/09/2015  14:01:00      -41.141      -52.524       -7.321       50.431       39.437       20.738     2543.262     1555.296      430.068        0.452        0.226       66.719       13.978        0.044      340.346       14.302      862.147
04/09/2015  14:02:00     -103.695     -102.949       -8.079       55.075       94.434       40.104     3033.209     8917.827     1608.293        1.749        0.678      146.120       37.105        0.064      340.815       15.095      862.125
04/09/2015  14:03:00     -110.392     -175.738       -2.557       77.138       46.816       33.834     5950.344     2191.750     1144.714        2.618        0.464      207.533       28.183        0.018      340.953       15.330      862.118
04/09/2015  14:04:00     -259.528     -219.635       -5.339       84.924       60.751       40.494     7212.115     3690.632     1639.753        6.408        0.627      339.991       47.394        0.019      340.716       14.926      862.099
04/09/2015  14:05:00     -312.023      -57.231      -43.927       97.724       50.577       31.147     9549.944     2558.042      970.141        5.782        0.654      317.229       45.826        0.021      340.771       15.020      862.108
04/09/2015  14:06:00     -249.233      -91.517      -32.504       80.323       80.250       29.854     6451.729     6440.137      891.237        4.266        0.689      265.505       42.413        0.026      340.442       14.463      862.109
04/09/2015  14:07:00     -111.410      -60.181      -11.278       44.138       42.654       22.450     1948.144     1819.340      503.997        1.022        0.214      126.626       24.215        0.037      340.407       14.408      862.110
04/09/2015  14:08:00      -50.842      -23.340       -7.274       62.368       34.917       18.715     3889.821     1219.195      350.246        0.432        0.273       55.944       28.726        0.264      340.270       14.174      862.093
04/09/2015  14:09:00       71.026       14.436        9.280       19.265       24.615       25.073      371.148      605.905      628.652        0.347        0.080       72.478       12.705        0.031      340.437       14.458      862.064
04/09/2015  14:10:00       58.561     -125.848       23.346       48.415       83.735       26.603     2344.013     7011.607      707.712        1.494        0.503      138.806       23.588        0.029      340.915       15.266      862.041
04/09/2015  14:11:00       22.898     -162.243        1.637       32.940       60.226       26.891     1085.043     3627.140      723.142        1.614        0.272      163.851       20.247        0.015      340.290       14.209      862.033
04/09/2015  14:12:00      -49.706     -147.185       -1.920      129.638      104.226       29.979    16806.128    10863.091      898.755        2.635        1.428      155.352       24.348        0.025      340.409       14.408      862.031
04/09/2015  14:13:00     -208.603     -148.392      -21.682       61.844       76.485       26.559     3824.738     5850.003      705.387        3.819        0.519      255.999       29.782        0.014      340.588       14.710      862.034
04/09/2015  14:14:00     -130.325      -12.412      -20.459       90.167       39.422       30.213     8130.106     1554.089      912.850        1.408        0.530      130.914       47.377        0.131      340.584       14.705      862.027
04/09/2015  14:15:00     -170.640     -176.693      -19.762       78.735       75.455       31.340     6199.212     5693.501      982.166        3.680        0.644      245.639       36.014        0.021      340.610       14.746      862.016
04/09/2015  14:16:00     -119.582     -173.639       -7.580       51.763       72.584       29.002     2679.412     5268.393      841.100        2.665        0.439      210.833       12.395        0.003      340.599       14.730      862.011
04/09/2015  14:17:00      -69.563     -171.023       -6.489       57.279       78.938       31.923     3280.907     6231.201     1019.065        2.233        0.527      184.629       37.063        0.040      340.873       15.194      861.998
04/09/2015  14:18:00      -29.961     -193.959       -6.336       67.152       48.292       27.553     4509.343     2332.128      759.142        2.308        0.380      196.259       25.150        0.016      340.747       14.979      861.980
04/09/2015  14:19:00       26.927     -275.434       -4.931       40.379       55.926       28.417     1630.469     3127.680      807.502        4.109        0.278      276.747       23.484        0.007      340.652       14.817      861.940
04/09/2015  14:20:00       48.303     -221.759       14.062       51.752       63.888       34.380     2678.295     4081.714     1181.984        2.982        0.397      226.958       32.690        0.021      341.000       15.407      861.918
04/09/2015  14:21:00        3.433     -195.694       16.218       85.151       65.483       30.405     7250.740     4287.997      924.491        2.551        0.623      195.724       18.908        0.009      341.468       16.201      861.883
04/09/2015  14:22:00     -144.854     -291.532        1.420       58.409       89.431       47.833     3411.641     7997.920     2287.958        5.983        0.685      325.536       41.941        0.017      340.939       15.303      861.858
04/09/2015  14:23:00      -73.319     -221.913      -12.650       32.490       57.014       30.847     1055.577     3250.556      951.517        3.002        0.263      233.711       20.735        0.008      340.767       15.010      861.883
04/09/2015  14:24:00     -103.633      -93.771       -5.038       40.572       53.767       26.051     1646.124     2890.868      678.635        1.239        0.261      139.760       24.369        0.030      340.780       15.037      861.882
04/09/2015  14:25:00     -236.733      -58.014      -40.465      116.764       67.080       30.868    13633.801     4499.678      952.855        4.006        0.954      243.738       54.101        0.049      341.107       15.588      861.870
04/09/2015  14:26:00     -295.362      -19.781      -50.865       93.667      115.472       31.368     8773.500    13333.855      983.962        5.665        1.155      296.024       47.518        0.026      340.750       14.984      861.837
04/09/2015  14:27:00     -230.082       19.938      -39.414       90.744       38.822       27.468     8234.465     1507.164      754.487        3.269        0.525      230.945       43.840        0.036      340.716       14.927      861.839
04/09/2015  14:28:00     -179.656      -13.872      -24.176       81.116       72.126       24.910     6579.837     5202.158      620.513        2.273        0.620      180.191       36.661        0.041      341.290       15.898      861.804
04/09/2015  14:29:00     -201.047      -24.034      -33.061       89.975       47.522       28.712     8095.586     2258.294      824.392        2.663        0.559      202.478       46.573        0.053      340.946       15.315      861.804
04/09/2015  14:30:00     -139.721       24.446      -23.570       59.726       30.377       19.457     3567.219      922.772      378.591        1.277        0.243      141.843       29.580        0.043      340.733       14.958      861.807
04/09/2015  14:31:00     -113.629       37.791      -15.270       50.877       42.415       22.681     2588.432     1799.001      514.431        0.974        0.245      119.749       28.319        0.056      341.026       15.454      861.790
04/09/2015  14:32:00     -183.319      -37.775      -31.043       81.735       50.085       23.884     6680.599     2508.482      570.422        2.288        0.488      187.171       39.178        0.044      340.867       15.181      861.775
04/09/2015  14:33:00     -186.419      -40.864      -30.816       82.490       43.370       24.826     6804.634     1880.968      616.329        2.334        0.465      190.845       41.390        0.047      341.038       15.471      861.763
04/09/2015  14:34:00     -160.693     -182.908        5.407       54.266       63.223       31.280     2944.785     3997.141      978.448        3.361        0.396      243.470       28.556        0.014      341.358       16.013      861.733
04/09/2015  14:35:00     -219.571     -109.262      -24.949       78.752       82.139       26.716     6201.824     6746.896      713.730        3.721        0.683      245.254       35.170        0.021      341.354       16.006      861.715
04/09/2015  14:36:00       34.133      142.381        1.968       64.953       61.100       27.229     4218.858     3733.156      741.399        1.507        0.435      146.415        6.724        0.002      341.003       15.415      861.740
04/09/2015  14:37:00       44.917      282.254       54.214       61.249       71.547       49.659     3751.379     5118.959     2466.047        4.798        0.567      285.806       26.525        0.009      340.927       15.282      861.730
04/09/2015  14:38:00        4.926       44.061        3.906       41.664       54.862       29.600     1735.909     3009.826      876.158        0.380        0.281       44.335       13.658        0.095      340.749       14.985      861.727
04/09/2015  14:39:00     -101.241       78.861       -6.157       58.175       42.823       31.098     3384.387     1833.843      967.091        1.134        0.309      128.331       34.441        0.072      341.271       15.869      861.734
04/09/2015  14:40:00     -169.142       65.744      -29.742       83.900       55.120       29.725     7039.252     3038.236      883.552        2.239        0.548      181.469       41.301        0.052      341.424       16.125      861.737
04/09/2015  14:41:00     -104.387      120.394      -19.512       62.145       74.386       30.015     3861.989     5533.223      900.916        1.803        0.515      159.347       35.339        0.049      341.041       15.480      861.749
04/09/2015  14:42:00       28.962       12.644        7.903       57.745       69.713       29.971     3334.505     4859.922      898.289        0.508        0.455       31.602       36.921        1.365      340.853       15.162      861.732
04/09/2015  14:43:00      -50.283       28.820        6.982       85.040      118.712       36.474     7231.876    14092.646     1330.354        1.303        1.133       57.957       55.990        0.933      341.194       15.738      861.686
04/09/2015  14:44:00     -124.236       84.067      -23.031       73.729       57.652       34.351     5435.960     3323.795     1179.990        1.648        0.497      150.006       40.388        0.072      340.899       15.239      861.680
04/09/2015  14:45:00      -94.377       48.262      -26.313      106.339       45.338       30.401    11308.079     2055.518      924.220        1.311        0.714      106.001       38.488        0.132      340.770       15.020      861.658
04/09/2015  14:46:00       16.079      135.495        7.467       48.495      107.397       28.218     2351.728    11534.175      796.241        1.667        0.734      136.446       19.532        0.020      341.111       15.596      861.626
04/09/2015  14:47:00       -8.434      148.074       -0.336       37.146       54.628       26.741     1379.829     2984.221      715.070        1.354        0.254      148.314       14.081        0.009      340.677       14.864      861.607
04/09/2015  14:48:00     -127.327       49.032       -8.904       78.612       51.039       37.056     6179.812     2604.941     1373.160        1.442        0.508      136.442       46.774        0.118      341.091       15.562      861.582
04/09/2015  14:49:00     -192.315       62.775      -31.540       78.202       58.573       22.656     6115.521     3430.842      513.309        2.599        0.503      202.302       35.567        0.031      341.006       15.416      861.570
04/09/2015  14:50:00     -148.322      156.725      -26.695       64.293       83.313       38.673     4133.530     6941.052     1495.595        2.992        0.629      215.782       39.654        0.034      340.973       15.360      861.565
04/09/2015  14:51:00     -137.499      130.282      -24.738       47.988       39.951       25.167     2302.858     1596.066      633.399        2.051        0.227      189.419       28.793        0.023      340.843       15.142      861.541
04/09/2015  14:52:00      -84.365       89.632       -7.891       44.138       39.649       35.614     1948.188     1572.014     1268.325        1.000        0.239      123.091       31.696        0.066      341.177       15.709      861.515
04/09/2015  14:53:00     -118.392       31.681      -10.276       87.164       44.621       38.250     7597.541     1990.991     1463.100        1.309        0.553      122.558       48.167        0.154      341.155       15.672      861.486
04/09/2015  14:54:00      -88.200       46.006      -10.292       58.957       37.285       21.334     3475.905     1390.183      455.121        0.766        0.266       99.478       29.617        0.089      341.006       15.419      861.460
04/09/2015  14:55:00     -195.055       17.597      -26.753       90.345       82.379       30.444     8162.233     6786.223      926.810        2.747        0.794      195.847       44.754        0.052      341.152       15.664      861.428
04/09/2015  14:56:00     -175.059      -69.267      -22.959       63.904       61.542       24.720     4083.688     3787.396      611.093        2.222        0.424      188.264       33.464        0.032      340.800       15.070      861.384
04/09/2015  14:57:00     -142.210        9.884      -20.549       55.671       68.095       26.467     3099.268     4636.953      700.482        1.459        0.422      142.553       30.906        0.047      341.111       15.597      861.377
04/09/2015  14:58:00     -157.120       44.581      -24.411       84.825       92.354       34.163     7195.336     8529.261     1167.127        2.208        0.845      163.323       44.561        0.074      341.453       16.176      861.363
04/09/2015  14:59:00     -183.331      211.372      -32.636       85.731       62.401       33.884     7349.829     3893.894     1148.099        4.587        0.620      279.801       39.044        0.019      341.089       15.557      861.376
04/09/2015  15:00:00     -129.421       10.195      -24.963       49.955       45.003       22.091     2495.512     2025.298      488.005        1.124        0.250      129.822       27.215        0.044      340.938       15.305      861.341
04/09/2015  15:01:00      -90.713       94.030      -11.771       48.963       99.447       27.255     2397.362     9889.700      742.857        1.512        0.651      130.654       29.874        0.052      341.427       16.132      861.315
04/09/2015  15:02:00     -100.379      390.231       -5.711       52.163       80.599       38.118     2720.946     6496.142     1452.964        8.653        0.534      402.935       33.285        0.007      341.207       15.756      861.310
04/09/2015  15:03:00      -47.939      201.027       -7.560       73.573       81.523       34.680     5413.033     6646.074     1202.724        2.801        0.663      206.664       26.906        0.017      341.121       15.612      861.300
04/09/2015  15:04:00      102.464      116.516       18.679       72.710       55.392       33.062     5286.742     3068.287     1093.080        1.693        0.472      155.161       31.916        0.042      341.132       15.633      861.265
04/09/2015  15:05:00       28.471      218.290       18.200       84.230       63.503       40.926     7094.695     4032.645     1674.968        3.080        0.640      220.139       34.899        0.025      341.677       16.555      861.257
04/09/2015  15:06:00       38.763      296.718       16.456       69.801       74.052       43.591     4872.116     5483.705     1900.164        5.103        0.613      299.240       31.238        0.011      341.422       16.120      861.245
04/09/2015  15:07:00      -26.619      329.142       -4.678       51.346       68.790       42.686     2636.438     4732.130     1822.095        5.913        0.460      330.217       17.382        0.003      341.437       16.144      861.217
04/09/2015  15:08:00      108.010      271.750       17.638       75.901       68.240       40.319     5760.961     4656.642     1625.620        4.893        0.602      292.428       35.322        0.015      341.424       16.122      861.193
04/09/2015  15:09:00       22.927      187.518       19.860       60.335       61.774       43.917     3640.298     3816.010     1928.706        2.273        0.469      188.914       18.699        0.010      341.639       16.490      861.160
04/09/2015  15:10:00       34.649      181.158       19.051       47.899       64.570       28.958     2294.311     4169.234      838.554        2.084        0.365      184.442       18.888        0.010      341.480       16.221      861.144
04/09/2015  15:11:00       61.413      213.598       19.879       84.408       68.401       41.771     7124.775     4678.753     1744.797        3.167        0.677      222.251       21.447        0.009      341.393       16.073      861.121
04/09/2015  15:12:00     -146.890       37.353      -18.080      135.622      108.857       41.944    18393.231    11849.807     1759.304        2.765        1.600      151.565       68.652        0.205      341.704       16.600      861.112
04/09/2015  15:13:00     -358.260      230.792      -56.729      189.670      116.472       59.769    35974.780    13565.633     3572.300       11.896        2.656      426.163       87.370        0.042      341.223       15.783      861.106
04/09/2015  15:14:00     -323.666       84.795      -50.990      127.407       71.572       29.048    16232.604     5122.486      843.806        6.837        1.110      334.590       55.044        0.027      341.008       15.420      861.135
04/09/2015  15:15:00     -289.138      129.874      -46.231      122.705      130.584       46.934    15056.546    17052.075     2202.775        6.845        1.716      316.967       67.515        0.045      341.294       15.904      861.116
04/09/2015  15:16:00     -200.143      195.955      -24.102      112.979       95.564       40.565    12764.321     9132.452     1645.499        5.129        1.177      280.099       56.451        0.041      341.160       15.675      861.155
04/09/2015  15:16:00     -270.000       37.000      -34.000          NaN          NaN          NaN          NaN          NaN          NaN        3.771          NaN      272.523        0.000        0.000      341.040       15.460      861.160
